Time;durP1;ratioP1;P1;durP2;ratioP2;P2;SDS_P1;SDS_P2;PMS_P1;PMS_P2;Temp;Humidity;BMP_temperature;BMP_pressure;BME280_temperature;BME280_humidity;BME280_pressure;Samples;Min_cycle;Max_cycle;Signal;HPM_P1;HPM_P2
2022/12/11 00:01:12;;;;;;;23.48;22.58;;;3.60;94.70;;;;;;5031272;28;20031;-77
2022/12/11 00:03:38;;;;;;;21.83;20.92;;;3.60;94.70;;;;;;5048948;28;20452;-78
2022/12/11 00:06:06;;;;;;;25.92;24.92;;;3.60;94.60;;;;;;5045822;28;20477;-77
2022/12/11 00:08:32;;;;;;;24.52;23.52;;;3.60;94.70;;;;;;5046932;28;20108;-77
2022/12/11 00:10:58;;;;;;;23.45;22.55;;;3.60;94.60;;;;;;5032401;28;20565;-77
2022/12/11 00:13:23;;;;;;;22.58;21.67;;;3.50;94.60;;;;;;5033067;28;20063;-76
2022/12/11 00:15:49;;;;;;;24.27;23.30;;;3.50;94.70;;;;;;5049195;28;20029;-77
2022/12/11 00:18:15;;;;;;;25.73;24.73;;;3.50;94.60;;;;;;5049394;28;20192;-77
2022/12/11 00:20:41;;;;;;;25.42;24.42;;;3.50;94.70;;;;;;5032605;28;20049;-77
2022/12/11 00:23:07;;;;;;;22.63;21.73;;;3.50;94.70;;;;;;5016438;28;20128;-77
2022/12/11 00:25:32;;;;;;;20.10;19.30;;;3.50;94.70;;;;;;5049386;28;20116;-78
2022/12/11 00:27:58;;;;;;;21.40;20.50;;;3.60;94.70;;;;;;5016294;28;20040;-77
2022/12/11 00:30:24;;;;;;;19.95;19.15;;;3.60;94.80;;;;;;5016025;28;20025;-78
2022/12/11 00:32:53;;;;;;;21.23;20.38;;;3.60;94.80;;;;;;5049154;28;20040;-76
2022/12/11 00:35:18;;;;;;;21.13;20.33;;;3.60;94.80;;;;;;5049271;28;20159;-77
2022/12/11 00:37:44;;;;;;;21.20;20.40;;;3.60;94.90;;;;;;5049079;28;20123;-77
2022/12/11 00:40:10;;;;;;;19.60;18.80;;;3.70;94.80;;;;;;5050326;28;20064;-77
2022/12/11 00:42:36;;;;;;;19.90;19.10;;;3.60;94.80;;;;;;5016113;28;20060;-77
2022/12/11 00:45:02;;;;;;;19.55;18.75;;;3.60;94.90;;;;;;5048717;28;20037;-77
2022/12/11 00:47:28;;;;;;;19.83;19.02;;;3.60;94.80;;;;;;5048842;28;20417;-79
2022/12/11 00:49:54;;;;;;;22.20;21.30;;;3.60;94.80;;;;;;5032193;28;20037;-79
2022/12/11 00:52:21;;;;;;;20.23;19.42;;;3.60;94.80;;;;;;5032093;28;20029;-80
2022/12/11 00:54:46;;;;;;;20.42;19.63;;;3.60;94.80;;;;;;5048883;28;20037;-80
2022/12/11 00:57:12;;;;;;;19.83;19.02;;;3.60;94.70;;;;;;5048880;28;20029;-79
2022/12/11 00:59:38;;;;;;;21.55;20.65;;;3.60;94.80;;;;;;5032286;28;20041;-81
2022/12/11 01:02:04;;;;;;;23.05;22.15;;;3.60;94.80;;;;;;5048792;28;20028;-81
2022/12/11 01:04:29;;;;;;;20.60;19.80;;;3.60;94.80;;;;;;5031869;28;20033;-77
2022/12/11 01:06:55;;;;;;;22.10;21.20;;;3.60;94.80;;;;;;5031761;28;20033;-78
2022/12/11 01:12:05;;;;;;;23.38;22.48;;;3.60;94.80;;;;;;5048914;28;20147;-79
2022/12/11 01:14:31;;;;;;;20.42;19.63;;;3.60;94.90;;;;;;5015438;28;20052;-79
2022/12/11 01:16:56;;;;;;;21.17;20.38;;;3.60;94.90;;;;;;5015199;28;20030;-79
2022/12/11 01:19:22;;;;;;;21.42;20.52;;;3.60;94.90;;;;;;5049471;28;20035;-80
2022/12/11 01:21:48;;;;;;;21.23;20.40;;;3.60;94.90;;;;;;5031379;28;20063;-79
2022/12/11 01:24:13;;;;;;;19.40;18.60;;;3.60;94.80;;;;;;5031749;28;20481;-79
2022/12/11 01:26:39;;;;;;;22.08;21.17;;;3.50;94.90;;;;;;5048393;28;20091;-81
2022/12/11 01:29:05;;;;;;;17.98;17.27;;;3.50;94.90;;;;;;5052408;28;20028;-79
2022/12/11 01:31:31;;;;;;;20.70;19.90;;;3.60;94.90;;;;;;5054947;28;20025;-79
2022/12/11 01:33:56;;;;;;;19.75;18.95;;;3.60;94.80;;;;;;5049549;28;20029;-80
2022/12/11 01:36:23;;;;;;;23.55;22.65;;;3.50;94.80;;;;;;5048112;28;20040;-79
2022/12/11 01:38:49;;;;;;;23.48;22.58;;;3.50;94.90;;;;;;5049312;28;20104;-79
2022/12/11 01:41:17;;;;;;;20.67;19.88;;;3.50;94.80;;;;;;5048010;28;20036;-79
2022/12/11 01:44:06;;;;;;;23.80;22.90;;;3.50;94.80;;;;;;5047953;28;20067;-79
2022/12/11 01:46:34;;;;;;;22.60;21.70;;;3.50;94.80;;;;;;5049148;28;20047;-79
2022/12/11 01:49:03;;;;;;;22.23;21.33;;;3.50;94.80;;;;;;5049005;28;20025;-79
2022/12/11 01:51:32;;;;;;;23.70;22.80;;;3.50;94.70;;;;;;5047687;28;20068;-79
2022/12/11 01:54:06;;;;;;;23.83;22.92;;;3.50;94.70;;;;;;5049100;28;20728;-79
2022/12/11 01:56:34;;;;;;;23.70;22.80;;;3.40;94.70;;;;;;5047803;28;20053;-79
2022/12/11 01:59:06;;;;;;;24.60;23.60;;;3.40;94.70;;;;;;5047663;28;20111;-78
2022/12/11 02:01:46;;;;;;;23.23;22.33;;;3.40;94.70;;;;;;5047230;28;20043;-79
2022/12/11 02:04:13;;;;;;;21.80;20.90;;;3.40;94.70;;;;;;5048926;28;20063;-77
2022/12/11 02:06:45;;;;;;;23.50;22.60;;;3.40;94.70;;;;;;5047432;28;20386;-77
2022/12/11 02:09:15;;;;;;;20.67;19.88;;;3.40;94.70;;;;;;5047944;28;20452;-77
2022/12/11 02:11:50;;;;;;;20.92;20.13;;;3.40;94.70;;;;;;5047446;28;20028;-77
2022/12/11 02:14:32;;;;;;;23.40;22.50;;;3.50;94.70;;;;;;5048719;28;20047;-77
2022/12/11 02:17:18;;;;;;;22.88;21.98;;;3.50;94.70;;;;;;5047275;28;20024;-77
2022/12/11 02:19:50;;;;;;;21.80;20.90;;;3.50;94.70;;;;;;5047161;28;20159;-77
2022/12/11 02:22:42;;;;;;;23.77;22.88;;;3.50;94.70;;;;;;5047237;28;20548;-77
2022/12/11 02:25:40;;;;;;;22.95;22.05;;;3.50;94.70;;;;;;5024196;28;20041;-77
2022/12/11 02:28:19;;;;;;;21.00;20.20;;;3.50;94.60;;;;;;5046995;28;20071;-78
2022/12/11 02:30:54;;;;;;;22.23;21.33;;;3.40;94.60;;;;;;5047220;28;20021;-77
2022/12/11 02:33:28;;;;;;;24.98;23.98;;;3.40;94.60;;;;;;5046231;28;20044;-77
2022/12/11 02:35:55;;;;;;;23.20;22.30;;;3.30;94.60;;;;;;5046859;28;20029;-77
2022/12/11 02:38:27;;;;;;;25.13;24.13;;;3.30;94.60;;;;;;5030545;28;20033;-77
2022/12/11 02:40:55;;;;;;;24.80;23.80;;;3.20;94.60;;;;;;5047026;28;20082;-77
2022/12/11 02:43:22;;;;;;;26.25;25.25;;;3.10;94.50;;;;;;5048305;28;20385;-77
2022/12/11 02:45:50;;;;;;;23.90;23.00;;;3.10;94.60;;;;;;5013927;28;20155;-77
2022/12/11 02:48:16;;;;;;;24.77;23.77;;;2.90;94.50;;;;;;5046781;28;20027;-77
2022/12/11 02:50:46;;;;;;;28.23;27.13;;;2.90;94.50;;;;;;5048007;28;20025;-77
2022/12/11 02:53:17;;;;;;;24.95;23.95;;;2.70;94.50;;;;;;5046658;28;20550;-77
2022/12/11 02:55:46;;;;;;;28.25;27.15;;;2.70;94.60;;;;;;5047990;28;20494;-77
2022/12/11 02:58:16;;;;;;;25.40;24.40;;;2.60;94.70;;;;;;5046614;28;20021;-73
2022/12/11 03:00:44;;;;;;;26.40;25.40;;;2.60;94.70;;;;;;5048600;28;20032;-77
2022/12/11 03:03:11;;;;;;;26.83;25.83;;;2.60;94.80;;;;;;5047037;28;20029;-77
2022/12/11 03:05:37;;;;;;;27.58;26.48;;;2.60;94.70;;;;;;5046633;28;20405;-77
2022/12/11 03:08:03;;;;;;;28.30;27.20;;;2.50;94.70;;;;;;5046477;28;20017;-78
2022/12/11 03:10:29;;;;;;;29.98;28.88;;;2.50;94.80;;;;;;5046610;28;20052;-83
2022/12/11 03:12:57;;;;;;;28.13;27.02;;;2.40;94.60;;;;;;5046717;28;20025;-83
2022/12/11 03:15:32;;;;;;;28.90;27.80;;;2.30;94.50;;;;;;5046540;28;20178;-83
2022/12/11 03:18:26;;;;;;;29.73;28.63;;;2.30;94.60;;;;;;5046351;28;20028;-84
2022/12/11 03:21:38;;;;;;;28.92;27.83;;;2.20;94.50;;;;;;5046535;28;20041;-84
2022/12/11 03:24:15;;;;;;;33.47;32.17;;;2.10;94.50;;;;;;5031776;28;20051;-83
2022/12/11 03:26:49;;;;;;;32.13;30.92;;;2.00;94.50;;;;;;5046290;28;20370;-83
2022/12/11 03:29:20;;;;;;;33.83;32.53;;;2.00;94.50;;;;;;5047646;28;20100;-84
2022/12/11 03:32:07;;;;;;;36.20;34.80;;;1.90;94.50;;;;;;5047984;28;20035;-77
2022/12/11 03:34:59;;;;;;;36.67;35.28;;;1.90;94.70;;;;;;5047489;28;20022;-77
2022/12/11 03:37:30;;;;;;;34.17;32.88;;;1.80;94.50;;;;;;5046143;28;20034;-77
2022/12/11 03:40:00;;;;;;;34.17;32.88;;;1.80;94.50;;;;;;5047518;28;20033;-77
2022/12/11 03:42:27;;;;;;;36.75;35.35;;;1.80;94.50;;;;;;5047575;28;20055;-77
2022/12/11 03:44:55;;;;;;;36.50;35.10;;;1.80;94.50;;;;;;5049438;28;20033;-79
2022/12/11 03:47:24;;;;;;;33.65;32.35;;;1.70;94.50;;;;;;5051418;28;20032;-79
2022/12/11 03:49:51;;;;;;;33.13;31.85;;;1.70;94.50;;;;;;5051288;28;20117;-78
2022/12/11 03:52:18;;;;;;;30.90;29.70;;;1.70;94.50;;;;;;5050315;28;20040;-79
2022/12/11 03:54:47;;;;;;;28.80;27.70;;;1.70;94.50;;;;;;5050019;28;20392;-79
2022/12/11 03:57:18;;;;;;;31.75;30.55;;;1.60;94.50;;;;;;5051637;28;20104;-79
2022/12/11 03:59:44;;;;;;;28.55;27.45;;;1.70;94.60;;;;;;5051186;28;20385;-79
2022/12/11 04:02:10;;;;;;;35.33;34.03;;;1.70;94.70;;;;;;5033344;28;20029;-80
2022/12/11 04:04:38;;;;;;;31.33;30.13;;;1.80;94.70;;;;;;5049891;28;20053;-79
2022/12/11 04:07:03;;;;;;;32.90;31.67;;;1.90;94.60;;;;;;5033208;28;20469;-77
2022/12/11 04:09:29;;;;;;;32.80;31.55;;;1.90;94.60;;;;;;5049419;28;20127;-77
2022/12/11 04:11:55;;;;;;;31.23;30.02;;;2.00;94.60;;;;;;5033197;28;20409;-77
2022/12/11 04:17:05;;;;;;;32.58;31.38;;;1.90;94.50;;;;;;5051381;28;20086;-77
2022/12/11 04:25:02;;;;;;;29.65;28.55;;;1.90;94.50;;;;;;5036089;28;20138;-77
2022/12/11 04:30:16;;;;;;;30.52;29.33;;;1.90;94.50;;;;;;5050504;28;20098;-77
2022/12/11 04:32:42;;;;;;;29.48;28.38;;;1.80;94.40;;;;;;5050006;28;20035;-77
2022/12/11 04:35:08;;;;;;;29.67;28.58;;;1.80;94.40;;;;;;5033030;28;20477;-77
2022/12/11 04:37:35;;;;;;;29.77;28.65;;;1.80;94.50;;;;;;5049329;28;20146;-77
2022/12/11 04:40:01;;;;;;;;;;;1.70;94.40;;;;;;5033184;28;20033;-77
2022/12/11 04:42:26;;;;;;;27.73;26.63;;;1.70;94.40;;;;;;5049332;28;19908;-77
2022/12/11 04:44:52;;;;;;;27.48;26.38;;;1.70;94.40;;;;;;5032429;28;20389;-77
2022/12/11 04:47:18;;;;;;;27.83;26.73;;;1.70;94.40;;;;;;5032745;28;20039;-83
2022/12/11 04:49:43;;;;;;;31.98;30.77;;;1.70;94.50;;;;;;5032593;28;20367;-83
2022/12/11 04:52:09;;;;;;;27.25;26.23;;;1.70;94.50;;;;;;5049234;28;20087;-84
2022/12/11 04:54:35;;;;;;;32.58;31.38;;;1.60;94.40;;;;;;5049896;28;20029;-83
2022/12/11 04:57:00;;;;;;;32.35;31.10;;;1.60;94.40;;;;;;5032521;28;20127;-83
2022/12/11 04:59:26;;;;;;;28.88;27.77;;;1.60;94.40;;;;;;5032545;28;20571;-83
2022/12/11 05:01:52;;;;;;;25.75;24.75;;;1.50;94.40;;;;;;5049185;28;20033;-83
2022/12/11 05:04:18;;;;;;;31.77;30.58;;;1.50;94.40;;;;;;5050384;28;20036;-83
2022/12/11 05:06:43;;;;;;;31.95;30.75;;;1.50;94.40;;;;;;5048900;28;20037;-83
2022/12/11 05:09:12;;;;;;;30.85;29.65;;;1.40;94.40;;;;;;5049029;28;20037;-80
2022/12/11 05:11:38;;;;;;;30.73;29.52;;;1.40;94.40;;;;;;5048785;28;20033;-80
2022/12/11 05:14:04;;;;;;;28.05;26.95;;;1.40;94.40;;;;;;5049897;28;20021;-77
2022/12/11 05:16:30;;;;;;;29.25;28.15;;;1.30;94.40;;;;;;5048377;28;20041;-77
2022/12/11 05:18:55;;;;;;;29.70;28.60;;;1.30;94.40;;;;;;5050049;28;20044;-77
2022/12/11 05:21:21;;;;;;;28.17;27.08;;;1.20;94.30;;;;;;5031749;28;20487;-78
2022/12/11 05:23:47;;;;;;;28.60;27.50;;;1.20;94.30;;;;;;5048758;28;20037;-78
2022/12/11 05:26:15;;;;;;;31.42;30.23;;;1.20;94.30;;;;;;5048399;28;20033;-77
2022/12/11 05:28:41;;;;;;;29.05;27.95;;;1.20;94.40;;;;;;5048371;28;20079;-78
2022/12/11 05:31:19;;;;;;;29.33;28.23;;;1.10;94.30;;;;;;5049728;28;20482;-77
2022/12/11 05:33:46;;;;;;;29.50;28.40;;;1.10;94.30;;;;;;5049552;28;20029;-77
2022/12/11 05:36:25;;;;;;;30.23;29.02;;;1.10;94.30;;;;;;5049328;28;20025;-77
2022/12/11 05:38:51;;;;;;;30.38;29.20;;;1.10;94.30;;;;;;5049736;28;20027;-77
2022/12/11 05:41:20;;;;;;;30.40;29.20;;;1.00;94.30;;;;;;5031739;28;20119;-77
2022/12/11 05:43:46;;;;;;;31.13;29.92;;;1.00;94.30;;;;;;5048042;28;20037;-77
2022/12/11 05:46:16;;;;;;;30.77;29.58;;;1.00;94.50;;;;;;5049209;28;20036;-77
2022/12/11 05:48:44;;;;;;;32.13;30.92;;;1.00;94.30;;;;;;5047809;28;20033;-77
2022/12/11 05:51:10;;;;;;;32.13;30.92;;;1.00;94.30;;;;;;5047944;28;20025;-77
2022/12/11 05:53:37;;;;;;;32.95;31.73;;;1.00;94.30;;;;;;5031270;28;20055;-77
2022/12/11 05:56:09;;;;;;;31.77;30.58;;;1.00;94.40;;;;;;5049119;28;20045;-77
2022/12/11 05:58:35;;;;;;;31.08;29.88;;;0.90;94.30;;;;;;5049084;28;20099;-77
2022/12/11 06:01:01;;;;;;;32.05;30.85;;;0.90;94.30;;;;;;5047624;28;20430;-77
2022/12/11 06:03:27;;;;;;;31.88;30.67;;;0.90;94.30;;;;;;5015019;28;20045;-77
2022/12/11 06:05:53;;;;;;;29.13;28.02;;;0.90;94.30;;;;;;5047648;28;20120;-77
2022/12/11 06:08:19;;;;;;;31.40;30.20;;;0.90;94.30;;;;;;5031001;28;20036;-77
2022/12/11 06:10:46;;;;;;;27.02;26.00;;;0.90;94.30;;;;;;5047846;28;20021;-77
2022/12/11 06:13:12;;;;;;;28.98;27.88;;;0.80;94.30;;;;;;5047567;28;20037;-77
2022/12/11 06:15:38;;;;;;;28.70;27.60;;;0.80;94.30;;;;;;5047410;28;20051;-77
2022/12/11 06:18:04;;;;;;;27.45;26.35;;;0.80;94.30;;;;;;5030672;28;20029;-77
2022/12/11 06:20:33;;;;;;;23.95;23.05;;;0.80;94.30;;;;;;5014378;28;20061;-77
2022/12/11 06:23:00;;;;;;;24.08;23.17;;;0.80;94.20;;;;;;5047439;28;20031;-77
2022/12/11 06:25:26;;;;;;;27.30;26.23;;;0.70;94.20;;;;;;5047274;28;20027;-77
2022/12/11 06:27:52;;;;;;;25.90;24.90;;;0.70;94.30;;;;;;5048625;28;20110;-78
2022/12/11 06:30:18;;;;;;;25.15;24.15;;;0.70;94.30;;;;;;5048502;28;20029;-77
2022/12/11 06:32:44;;;;;;;27.10;26.08;;;0.60;94.30;;;;;;5048319;28;20432;-77
2022/12/11 06:35:11;;;;;;;23.92;23.02;;;0.60;94.30;;;;;;5047090;28;20157;-77
2022/12/11 06:37:37;;;;;;;27.90;26.80;;;0.60;94.30;;;;;;5030792;28;20123;-77
2022/12/11 06:40:07;;;;;;;25.13;24.13;;;0.60;94.30;;;;;;5047097;28;20037;-77
2022/12/11 06:42:34;;;;;;;25.85;24.85;;;0.60;94.30;;;;;;5046870;28;20082;-77
2022/12/11 06:45:00;;;;;;;26.95;25.95;;;0.60;94.30;;;;;;5030277;28;20025;-79
2022/12/11 06:47:26;;;;;;;24.88;23.88;;;0.60;94.30;;;;;;5048204;28;20079;-80
2022/12/11 06:49:52;;;;;;;26.05;25.05;;;0.60;94.30;;;;;;5046807;28;20473;-80
2022/12/11 06:52:19;;;;;;;27.60;26.50;;;0.50;94.30;;;;;;5030592;28;20029;-80
2022/12/11 06:54:45;;;;;;;25.33;24.33;;;0.60;94.40;;;;;;5013859;28;20114;-80
2022/12/11 06:57:11;;;;;;;27.73;26.63;;;0.60;94.50;;;;;;5046861;28;20025;-80
2022/12/11 06:59:36;;;;;;;24.90;23.90;;;0.60;94.40;;;;;;5046796;28;20083;-80
2022/12/11 07:02:04;;;;;;;26.52;25.52;;;0.60;94.50;;;;;;5046708;28;20119;-80
2022/12/11 07:04:30;;;;;;;24.70;23.70;;;0.60;94.50;;;;;;5047907;28;20036;-80
2022/12/11 07:06:56;;;;;;;;;;;0.70;94.60;;;;;;5048482;28;20032;-80
2022/12/11 07:09:22;;;;;;;28.52;27.42;;;0.70;94.60;;;;;;5047943;28;19908;-80
2022/12/11 07:11:49;;;;;;;;;;;0.70;94.70;;;;;;5030819;28;20090;-80
2022/12/11 07:14:15;;;;;;;27.98;26.88;;;0.80;94.60;;;;;;5047856;28;19909;-79
2022/12/11 07:16:41;;;;;;;28.02;26.92;;;0.80;94.50;;;;;;5046262;28;20043;-76
2022/12/11 07:19:07;;;;;;;25.48;24.48;;;0.80;94.50;;;;;;5012837;28;20123;-76
2022/12/11 07:21:32;;;;;;;28.42;27.33;;;0.90;94.60;;;;;;5046437;28;20080;-77
2022/12/11 07:23:58;;;;;;;26.95;25.95;;;0.90;94.60;;;;;;5047700;28;20061;-77
2022/12/11 07:26:24;;;;;;;28.98;27.88;;;1.00;94.60;;;;;;5029787;28;20037;-76
2022/12/11 07:28:50;;;;;;;29.08;27.98;;;1.00;94.50;;;;;;5013299;28;20132;-76
2022/12/11 07:31:21;;;;;;;29.38;28.27;;;1.00;94.50;;;;;;5029940;28;20029;-76
2022/12/11 07:33:52;;;;;;;26.98;25.95;;;1.00;94.40;;;;;;5047928;28;20217;-76
2022/12/11 07:36:18;;;;;;;26.80;25.80;;;0.90;94.30;;;;;;5046274;28;20029;-76
2022/12/11 07:38:44;;;;;;;26.85;25.83;;;0.80;94.20;;;;;;5013183;28;20083;-76
2022/12/11 07:41:12;;;;;;;26.92;25.90;;;0.80;94.20;;;;;;5046239;28;20036;-76
2022/12/11 07:43:38;;;;;;;26.08;25.08;;;0.70;94.20;;;;;;5029525;28;20394;-76
2022/12/11 07:46:11;;;;;;;22.83;21.92;;;0.70;94.20;;;;;;5046266;28;20108;-76
2022/12/11 07:48:38;;;;;;;24.27;23.30;;;0.70;94.20;;;;;;5047484;28;20022;-77
2022/12/11 07:51:13;;;;;;;26.30;25.30;;;0.70;94.30;;;;;;5029681;28;20507;-76
2022/12/11 07:53:40;;;;;;;23.70;22.80;;;0.70;94.30;;;;;;5047409;28;20407;-76
2022/12/11 07:56:06;;;;;;;24.85;23.85;;;0.70;94.30;;;;;;5029770;28;20033;-76
2022/12/11 07:58:32;;;;;;;;;;;0.70;94.30;;;;;;5046384;28;20075;-78
2022/12/11 08:00:58;;;;;;;24.98;23.98;;;0.60;94.20;;;;;;5045920;28;19913;-79
2022/12/11 08:03:24;;;;;;;23.70;22.80;;;0.60;94.20;;;;;;5013110;28;20036;-78
2022/12/11 08:05:51;;;;;;;26.75;25.75;;;0.60;94.20;;;;;;5045599;28;20067;-76
2022/12/11 08:08:17;;;;;;;25.65;24.65;;;0.60;94.20;;;;;;5045905;28;20029;-78
2022/12/11 08:10:43;;;;;;;25.42;24.42;;;0.50;94.20;;;;;;5045632;28;20139;-78
2022/12/11 08:13:10;;;;;;;27.95;26.85;;;0.50;94.20;;;;;;5047413;28;20033;-78
2022/12/11 08:15:36;;;;;;;28.67;27.58;;;0.50;94.20;;;;;;5045755;28;20060;-78
2022/12/11 08:18:02;;;;;;;25.17;24.17;;;0.50;94.20;;;;;;5029377;28;20032;-79
2022/12/11 08:20:29;;;;;;;26.60;25.60;;;0.50;94.20;;;;;;5047005;28;20057;-78
2022/12/11 08:22:55;;;;;;;24.30;23.30;;;0.40;94.20;;;;;;5029418;28;20029;-78
2022/12/11 08:25:21;;;;;;;24.63;23.63;;;0.40;94.20;;;;;;5029048;28;20040;-79
2022/12/11 08:27:46;;;;;;;26.30;25.30;;;0.40;94.20;;;;;;5045803;28;20515;-78
2022/12/11 08:30:12;;;;;;;25.35;24.35;;;0.40;94.20;;;;;;5046005;28;20029;-79
2022/12/11 08:32:38;;;;;;;23.30;22.40;;;0.30;94.20;;;;;;5016417;28;20183;-78
2022/12/11 08:35:05;;;;;;;25.42;24.42;;;0.30;94.20;;;;;;5032421;28;20043;-78
2022/12/11 08:37:32;;;;;;;24.30;23.30;;;0.30;94.40;;;;;;5050490;28;20025;-78
2022/12/11 08:39:58;;;;;;;25.05;24.05;;;0.30;94.20;;;;;;5032619;28;20037;-78
2022/12/11 08:42:23;;;;;;;24.65;23.65;;;0.30;94.20;;;;;;5033515;28;20028;-79
2022/12/11 08:44:50;;;;;;;25.35;24.35;;;0.30;94.20;;;;;;5050618;28;20100;-78
2022/12/11 08:47:16;;;;;;;23.30;22.40;;;0.30;94.20;;;;;;5015409;28;20116;-78
2022/12/11 08:49:42;;;;;;;24.77;23.77;;;0.30;94.20;;;;;;5015976;28;20191;-79
2022/12/11 08:52:08;;;;;;;23.65;22.75;;;0.30;94.20;;;;;;5050129;28;20028;-78
2022/12/11 08:54:35;;;;;;;22.73;21.83;;;0.30;94.20;;;;;;5048039;28;20042;-76
2022/12/11 08:57:00;;;;;;;21.85;20.95;;;0.30;94.20;;;;;;5032264;28;20091;-77
2022/12/11 08:59:26;;;;;;;23.83;22.92;;;0.30;94.20;;;;;;5032471;28;20424;-77
2022/12/11 09:01:54;;;;;;;24.77;23.77;;;0.30;94.30;;;;;;5050393;28;20043;-77
2022/12/11 09:04:20;;;;;;;19.77;18.98;;;0.30;94.30;;;;;;5049843;28;20056;-77
2022/12/11 09:06:46;;;;;;;25.67;24.67;;;0.30;94.30;;;;;;5013991;28;20055;-77
2022/12/11 09:09:11;;;;;;;23.13;22.23;;;0.30;94.30;;;;;;5013850;28;20116;-77
2022/12/11 09:11:38;;;;;;;23.85;22.95;;;0.30;94.30;;;;;;5046743;28;20465;-77
2022/12/11 09:14:04;;;;;;;24.80;23.80;;;0.30;94.30;;;;;;5046475;28;20117;-77
2022/12/11 09:16:31;;;;;;;21.90;21.00;;;0.30;94.30;;;;;;5048052;28;20264;-77
2022/12/11 09:18:58;;;;;;;22.33;21.42;;;0.30;94.30;;;;;;5047012;28;20033;-77
2022/12/11 09:21:26;;;;;;;21.77;20.88;;;0.40;94.40;;;;;;5048107;28;20044;-77
2022/12/11 09:23:54;;;;;;;19.17;18.38;;;0.60;94.90;;;;;;5049882;28;20104;-77
2022/12/11 09:26:20;;;;;;;17.15;16.45;;;0.80;95.10;;;;;;5048137;28;20385;-76
2022/12/11 09:28:46;;;;;;;15.00;14.40;;;1.10;95.10;;;;;;5031485;28;20156;-77
2022/12/11 09:31:17;;;;;;;15.90;15.20;;;1.40;95.20;;;;;;5049058;28;20516;-77
2022/12/11 09:33:44;;;;;;;16.75;16.05;;;1.60;95.00;;;;;;5047805;28;20462;-77
2022/12/11 09:36:10;;;;;;;13.52;12.93;;;1.70;95.00;;;;;;5048005;28;20033;-77
2022/12/11 09:38:36;;;;;;;14.40;13.80;;;1.70;94.60;;;;;;5048032;28;20385;-77
2022/12/11 09:41:20;;;;;;;15.18;14.57;;;1.70;94.50;;;;;;5030782;28;20040;-77
2022/12/11 09:43:57;;;;;;;15.23;14.60;;;1.60;94.50;;;;;;5049355;28;20025;-76
2022/12/11 09:46:24;;;;;;;14.45;13.85;;;1.70;94.50;;;;;;5047538;28;20029;-77
2022/12/11 09:48:52;;;;;;;17.23;16.52;;;1.60;94.50;;;;;;5047765;28;20036;-77
2022/12/11 09:51:26;;;;;;;18.50;17.70;;;1.60;94.40;;;;;;5047889;28;20399;-77
2022/12/11 09:53:55;;;;;;;16.70;16.00;;;1.50;94.40;;;;;;5047452;28;20113;-77
2022/12/11 09:56:29;;;;;;;17.23;16.52;;;1.50;94.40;;;;;;5048949;28;20025;-77
2022/12/11 09:58:58;;;;;;;15.43;14.77;;;1.50;94.40;;;;;;5047863;28;20064;-77
2022/12/11 10:01:23;;;;;;;15.70;15.00;;;1.40;94.40;;;;;;5048566;28;20036;-77
2022/12/11 10:04:08;;;;;;;15.48;14.77;;;1.40;94.40;;;;;;5049331;28;20025;-78
2022/12/11 10:07:03;;;;;;;5.47;5.18;;;1.40;94.60;;;;;;5048742;28;20035;-78
2022/12/11 10:09:36;;;;;;;3.83;3.53;;;1.90;95.80;;;;;;5038222;28;20033;-78
2022/12/11 10:12:11;;;;;;;2.80;2.60;;;3.00;96.60;;;;;;5049289;28;20533;-77
2022/12/11 10:14:54;;;;;;;2.08;1.92;;;4.00;96.80;;;;;;5048547;28;20029;-78
2022/12/11 10:17:26;;;;;;;2.28;2.08;;;4.90;96.70;;;;;;5047260;28;20029;-78
2022/12/11 10:19:54;;;;;;;2.78;2.45;;;5.60;96.00;;;;;;5046937;28;20028;-78
2022/12/11 10:22:31;;;;;;;2.70;2.50;;;5.50;94.90;;;;;;5046984;28;20024;-78
2022/12/11 10:25:05;;;;;;;2.83;2.63;;;5.10;94.30;;;;;;5046562;28;20028;-78
2022/12/11 10:27:37;;;;;;;2.45;2.25;;;4.80;94.90;;;;;;5046738;28;20021;-78
2022/12/11 10:30:34;;;;;;;1.70;1.60;;;4.90;95.40;;;;;;5047939;28;20025;-78
2022/12/11 10:33:25;;;;;;;1.48;1.38;;;5.60;96.40;;;;;;5049969;28;20029;-78
2022/12/11 10:35:54;;;;;;;1.30;1.20;;;6.30;96.10;;;;;;5046612;28;20401;-78
2022/12/11 10:38:37;;;;;;;1.38;1.27;;;6.40;95.50;;;;;;5030379;28;20035;-77
2022/12/11 10:41:09;;;;;;;1.70;1.60;;;6.40;95.30;;;;;;5046264;28;20086;-78
2022/12/11 10:43:41;;;;;;;1.80;1.70;;;6.20;95.10;;;;;;5046142;28;20025;-78
2022/12/11 10:46:18;;;;;;;1.40;1.30;;;6.20;95.50;;;;;;5046300;28;20021;-78
2022/12/11 10:48:44;;;;;;;;;;;6.30;95.60;;;;;;5046977;28;20476;-78
2022/12/11 10:51:10;;;;;;;1.60;1.50;;;6.20;95.30;;;;;;5046170;28;19913;-78
2022/12/11 10:53:36;;;;;;;1.40;1.30;;;5.90;95.20;;;;;;5028741;28;20025;-78
2022/12/11 10:56:02;;;;;;;1.30;1.20;;;5.70;95.20;;;;;;5046373;28;20079;-78
2022/12/11 10:58:32;;;;;;;1.40;1.30;;;5.40;95.10;;;;;;5029941;28;20425;-77
2022/12/11 11:01:09;;;;;;;1.60;1.50;;;5.20;95.10;;;;;;5045747;28;20033;-78
2022/12/11 11:03:42;;;;;;;1.63;1.52;;;5.20;95.90;;;;;;5047515;28;20025;-78
2022/12/11 11:06:19;;;;;;;1.80;1.70;;;5.30;95.80;;;;;;5045619;28;20473;-78
2022/12/11 11:08:50;;;;;;;1.67;1.58;;;5.40;95.70;;;;;;5045706;28;20041;-78
2022/12/11 11:11:27;;;;;;;1.70;1.60;;;5.50;95.80;;;;;;5046094;28;20029;-78
2022/12/11 11:14:14;;;;;;;1.30;1.20;;;5.90;96.50;;;;;;5049086;28;20043;-77
2022/12/11 11:16:42;;;;;;;0.90;0.90;;;6.80;97.20;;;;;;5046118;28;20035;-77
2022/12/11 11:19:18;;;;;;;1.00;1.00;;;7.60;97.20;;;;;;5046006;28;20331;-78
2022/12/11 11:21:53;;;;;;;0.70;0.70;;;8.40;97.20;;;;;;5045623;28;20053;-78
2022/12/11 11:24:33;;;;;;;0.50;0.50;;;9.00;97.10;;;;;;5047053;28;20054;-78
2022/12/11 11:27:00;;;;;;;0.30;0.30;;;9.60;97.10;;;;;;5046770;28;20017;-78
2022/12/11 11:29:31;;;;;;;0.20;0.20;;;10.20;97.00;;;;;;5029222;28;20029;-78
2022/12/11 11:32:21;;;;;;;0.00;0.00;;;10.30;96.50;;;;;;5046557;28;20036;-78
2022/12/11 11:34:47;;;;;;;0.00;0.00;;;10.00;95.60;;;;;;5045643;28;20240;-74
2022/12/11 11:37:29;;;;;;;0.10;0.10;;;9.20;94.80;;;;;;5046941;28;20389;-78
2022/12/11 11:40:01;;;;;;;0.35;0.35;;;8.40;94.70;;;;;;5045421;28;20029;-78
2022/12/11 11:42:56;;;;;;;0.85;0.85;;;7.70;94.80;;;;;;5045134;28;20092;-78
2022/12/11 11:45:30;;;;;;;0.70;0.70;;;7.50;96.00;;;;;;5046981;28;20029;-78
2022/12/11 11:47:59;;;;;;;0.70;0.70;;;7.80;96.90;;;;;;5045599;28;20089;-78
2022/12/11 11:50:31;;;;;;;0.60;0.60;;;8.20;97.00;;;;;;5046710;28;20136;-78
2022/12/11 11:53:04;;;;;;;0.60;0.60;;;8.60;97.00;;;;;;5045402;28;20028;-79
2022/12/11 11:56:09;;;;;;;0.50;0.50;;;8.90;96.90;;;;;;5045248;28;20315;-78
2022/12/11 11:58:46;;;;;;;0.20;0.20;;;9.30;96.90;;;;;;5039089;28;20572;-78
2022/12/11 12:01:18;;;;;;;0.10;0.10;;;9.40;96.30;;;;;;5045694;28;20370;-78
2022/12/11 12:03:46;;;;;;;0.10;0.10;;;8.90;94.90;;;;;;5047003;28;20059;-78
2022/12/11 12:06:27;;;;;;;0.47;0.47;;;8.10;94.30;;;;;;5048971;28;20060;-78
2022/12/11 12:09:23;;;;;;;0.60;0.60;;;7.40;94.40;;;;;;5048906;28;20072;-78
2022/12/11 12:11:59;;;;;;;1.20;1.10;;;6.80;94.60;;;;;;5050144;28;20100;-78
2022/12/11 12:14:33;;;;;;;0.90;0.90;;;6.40;95.00;;;;;;5048888;28;20385;-78
2022/12/11 12:17:08;;;;;;;1.35;1.25;;;6.10;95.20;;;;;;5048599;28;20507;-77
2022/12/11 12:19:46;;;;;;;1.50;1.40;;;6.00;95.20;;;;;;5048901;28;20025;-78
2022/12/11 12:22:41;;;;;;;2.15;1.98;;;5.80;95.10;;;;;;5050187;28;20039;-78
2022/12/11 12:25:25;;;;;;;2.65;2.45;;;5.60;95.00;;;;;;5049907;28;20435;-78
2022/12/11 12:28:24;;;;;;;2.80;2.60;;;5.40;95.00;;;;;;5049273;28;20024;-77
2022/12/11 12:31:08;;;;;;;2.55;2.35;;;5.30;95.00;;;;;;5041352;28;20386;-78
2022/12/11 12:33:43;;;;;;;3.67;3.38;;;5.20;95.10;;;;;;5048822;28;20047;-79
2022/12/11 12:36:33;;;;;;;3.70;3.40;;;5.10;95.10;;;;;;5048151;28;20037;-78
2022/12/11 12:39:02;;;;;;;3.03;2.83;;;5.10;95.20;;;;;;5049544;28;20090;-78
2022/12/11 12:41:45;;;;;;;3.53;3.22;;;5.10;95.20;;;;;;5048891;28;20081;-78
2022/12/11 12:44:17;;;;;;;3.60;3.30;;;5.00;95.10;;;;;;5048482;28;20029;-78
2022/12/11 12:46:54;;;;;;;3.70;3.40;;;4.90;94.90;;;;;;5048292;28;20025;-78
2022/12/11 12:49:45;;;;;;;3.65;3.35;;;4.80;95.00;;;;;;5048223;28;20021;-79
2022/12/11 12:52:19;;;;;;;2.97;2.78;;;4.80;95.00;;;;;;5050200;28;20385;-78
2022/12/11 12:55:12;;;;;;;4.72;4.43;;;4.80;95.10;;;;;;5050112;28;20021;-79
2022/12/11 12:57:40;;;;;;;4.70;4.40;;;4.80;95.20;;;;;;5049541;28;20239;-79
2022/12/11 13:00:07;;;;;;;4.20;3.90;;;4.90;95.20;;;;;;5048248;28;20432;-79
2022/12/11 13:02:36;;;;;;;4.40;4.10;;;4.90;95.00;;;;;;5048679;28;20060;-79
2022/12/11 13:05:17;;;;;;;5.38;5.07;;;4.90;95.10;;;;;;5031694;28;20090;-78
2022/12/11 13:07:51;;;;;;;6.10;5.80;;;4.90;95.00;;;;;;5047920;28;20488;-78
2022/12/11 13:10:24;;;;;;;4.90;4.60;;;5.00;95.00;;;;;;5049103;28;20120;-78
2022/12/11 13:12:50;;;;;;;6.05;5.75;;;4.90;94.90;;;;;;5049172;28;20078;-78